createdAt,value
2018-10-09T00:00:35.293Z,79.64
2018-10-09T00:01:15.799Z,79.55
2018-10-09T00:01:56.377Z,79.22
2018-10-09T00:02:36.964Z,79.36
2018-10-09T00:03:17.525Z,79.64
2018-10-09T00:03:58.077Z,79.36
2018-10-09T00:04:38.646Z,79.46
2018-10-09T00:05:19.198Z,79.36
2018-10-09T00:05:59.769Z,79.27
2018-10-09T00:06:40.346Z,79.17
2018-10-09T00:07:20.935Z,78.98
2018-10-09T00:08:01.472Z,79.55
2018-10-09T00:08:42.030Z,79.55
2018-10-09T00:09:22.592Z,79.46
2018-10-09T00:10:03.145Z,78.98
2018-10-09T00:10:43.704Z,79.64
2018-10-09T00:11:24.257Z,79.64
2018-10-09T00:12:04.829Z,79.64
2018-10-09T00:12:45.412Z,79.17
2018-10-09T00:13:25.992Z,79.36
2018-10-09T00:14:06.589Z,79.32
2018-10-09T00:14:47.157Z,79.64
2018-10-09T00:15:27.716Z,79.64
2018-10-09T00:16:08.293Z,79.46
2018-10-09T00:16:48.820Z,79.36
2018-10-09T00:17:29.388Z,79.36
2018-10-09T00:18:09.968Z,79.55
2018-10-09T00:18:50.513Z,79.46
2018-10-09T00:19:31.061Z,79.64
2018-10-09T00:20:11.615Z,79.74
2018-10-09T00:20:52.168Z,79.64
2018-10-09T00:21:32.724Z,79.64
2018-10-09T00:22:13.286Z,79.36
2018-10-09T00:22:53.842Z,79.74
2018-10-09T00:23:34.410Z,79.55
2018-10-09T00:24:14.977Z,79.27
2018-10-09T00:24:55.574Z,79.6
2018-10-09T00:25:36.174Z,79.6
2018-10-09T00:26:16.746Z,79.6
2018-10-09T00:26:57.287Z,79.32
2018-10-09T00:27:37.864Z,79.41
2018-10-09T00:28:18.414Z,79.89
2018-10-09T00:28:59.008Z,79.99
2018-10-09T00:29:39.569Z,79.8
2018-10-09T00:30:20.124Z,79.93
2018-10-09T00:31:00.691Z,79.7
2018-10-09T00:31:41.267Z,79.32
2018-10-09T00:32:21.823Z,79.7
2018-10-09T00:33:02.390Z,79.8
2018-10-09T00:33:42.946Z,79.6
2018-10-09T00:34:23.513Z,79.83
2018-10-09T00:35:04.062Z,79.89
2018-10-09T00:35:44.612Z,79.99
2018-10-09T00:36:25.167Z,79.89
2018-10-09T00:37:05.737Z,80.08
2018-10-09T00:37:46.329Z,79.8
2018-10-09T00:38:26.848Z,80.18
2018-10-09T00:39:07.427Z,80.46
2018-10-09T00:39:47.988Z,80.36
2018-10-09T00:40:28.560Z,80.27
2018-10-09T00:41:09.118Z,80.27
2018-10-09T00:41:49.701Z,80.46
2018-10-09T00:42:30.240Z,80.36
2018-10-09T00:43:10.812Z,80.27
2018-10-09T00:43:51.413Z,80.36
2018-10-09T00:44:31.988Z,80.36
2018-10-09T00:45:12.545Z,80.46
2018-10-09T00:45:53.113Z,80.27
2018-10-09T00:46:33.698Z,80.55
2018-10-09T00:47:14.291Z,80.08
2018-10-09T00:47:54.847Z,80.36
2018-10-09T00:48:35.420Z,80.94
2018-10-09T00:49:15.968Z,80.84
2018-10-09T00:49:56.549Z,80.55
2018-10-09T00:50:37.097Z,80.75
2018-10-09T00:51:17.663Z,80.55
2018-10-09T00:51:58.207Z,80.65
2018-10-09T00:52:38.839Z,80.55
2018-10-09T00:53:19.401Z,80.65
2018-10-09T00:53:59.966Z,80.55
2018-10-09T00:54:40.514Z,80.55
2018-10-09T00:55:21.069Z,80.46
2018-10-09T00:56:01.618Z,80.55
2018-10-09T00:56:42.167Z,80.55
2018-10-09T00:57:22.747Z,80.65
2018-10-09T00:58:03.301Z,81.23
2018-10-09T00:58:43.866Z,81.03
2018-10-09T00:59:24.424Z,81.13
2018-10-09T01:00:04.982Z,80.84
2018-10-09T01:00:45.534Z,81.13
2018-10-09T01:01:26.083Z,81.23
2018-10-09T01:02:06.705Z,81.6
2018-10-09T01:02:47.269Z,80.84
2018-10-09T01:03:27.823Z,81.13
2018-10-09T01:04:08.381Z,80.94
2018-10-09T01:04:48.939Z,81.03
2018-10-09T01:05:29.520Z,80.75
2018-10-09T01:06:10.070Z,80.84
2018-10-09T01:06:50.632Z,81.32
2018-10-09T01:07:31.194Z,81.51
2018-10-09T01:08:11.748Z,81.51
2018-10-09T01:08:52.304Z,81.51
2018-10-09T01:09:32.855Z,81.51
2018-10-09T01:10:13.414Z,81.32
2018-10-09T01:10:53.976Z,81.23
2018-10-09T01:11:34.541Z,81.23
2018-10-09T01:12:15.071Z,80.75
2018-10-09T01:12:55.627Z,80.84
2018-10-09T01:13:36.179Z,81.03
2018-10-09T01:14:16.721Z,81.51
2018-10-09T01:14:57.282Z,81.13
2018-10-09T01:15:37.858Z,81.32
2018-10-09T01:16:18.397Z,81.51
2018-10-09T01:16:58.970Z,81.6
2018-10-09T01:17:39.658Z,81.32
2018-10-09T01:18:20.219Z,81.51
2018-10-09T01:19:00.773Z,81.23
2018-10-09T01:19:41.337Z,81.51
2018-10-09T01:20:21.908Z,81.51
2018-10-09T01:21:02.467Z,81.51
2018-10-09T01:21:43.028Z,81.41
2018-10-09T01:22:23.591Z,81.23
2018-10-09T01:23:04.151Z,81.51
2018-10-09T01:23:44.693Z,81.23
2018-10-09T01:24:25.257Z,81.6
2018-10-09T01:25:05.824Z,81.6
2018-10-09T01:25:46.381Z,81.98
2018-10-09T01:26:26.928Z,81.76
2018-10-09T01:27:07.507Z,82.08
2018-10-09T01:27:48.074Z,81.79
2018-10-09T01:28:28.638Z,81.98
2018-10-09T01:29:09.180Z,81.85
2018-10-09T01:29:49.737Z,82.27
2018-10-09T01:30:30.294Z,81.95
2018-10-09T01:31:10.866Z,82.14
2018-10-09T01:31:51.429Z,82.7
2018-10-09T01:32:31.994Z,82.65
2018-10-09T01:33:12.550Z,82.08
2018-10-09T01:33:53.094Z,81.89
2018-10-09T01:34:33.658Z,81.95
2018-10-09T01:35:14.209Z,82.27
2018-10-09T01:35:54.768Z,81.7
2018-10-09T01:36:35.327Z,81.79
2018-10-09T01:37:15.908Z,81.98
2018-10-09T01:37:56.459Z,81.98
2018-10-09T01:38:37.051Z,81.89
2018-10-09T01:39:17.600Z,82.04
2018-10-09T01:39:58.182Z,81.76
2018-10-09T01:40:38.766Z,82.04
2018-10-09T01:41:19.332Z,81.95
2018-10-09T01:41:59.891Z,82.04
2018-10-09T01:42:40.454Z,81.95
2018-10-09T01:43:21.015Z,81.66
2018-10-09T01:44:01.577Z,82.23
2018-10-09T01:44:42.137Z,82.51
2018-10-09T01:45:22.711Z,82.42
2018-10-09T01:46:03.262Z,82.42
2018-10-09T01:46:43.817Z,82.42
2018-10-09T01:47:24.410Z,82.61
2018-10-09T01:48:04.958Z,82.32
2018-10-09T01:48:45.510Z,82.51
2018-10-09T01:49:26.069Z,82.51
2018-10-09T01:50:06.620Z,82.32
2018-10-09T01:50:47.180Z,82.14
2018-10-09T01:51:27.738Z,82.42
2018-10-09T01:52:08.299Z,82.42
2018-10-09T01:52:48.940Z,82.42
2018-10-09T01:53:29.466Z,82.42
2018-10-09T01:54:10.054Z,82.42
2018-10-09T01:54:50.608Z,82.42
2018-10-09T01:55:31.165Z,82.42
2018-10-09T01:56:11.726Z,82.8
2018-10-09T01:56:52.296Z,82.61
2018-10-09T01:57:32.860Z,82.7
2018-10-09T01:58:13.412Z,82.7
2018-10-09T01:58:53.981Z,82.8
2018-10-09T01:59:34.518Z,83.18
2018-10-09T02:00:15.090Z,83.28
2018-10-09T02:00:55.648Z,82.8
2018-10-09T02:01:36.217Z,83.28
2018-10-09T02:02:16.767Z,82.9
2018-10-09T02:02:57.336Z,82.8
2018-10-09T02:03:37.899Z,83.28
2018-10-09T02:04:18.572Z,83.56
2018-10-09T02:04:59.172Z,83.09
2018-10-09T02:05:39.737Z,83.56
2018-10-09T02:06:20.290Z,82.99
2018-10-09T02:07:00.846Z,83.18
2018-10-09T02:07:41.398Z,83.37
2018-10-09T02:08:21.955Z,83.28
2018-10-09T02:09:02.517Z,83.47
2018-10-09T02:09:43.069Z,82.9
2018-10-09T02:10:23.627Z,82.7
2018-10-09T02:11:04.203Z,83.47
2018-10-09T02:11:44.782Z,83.37
2018-10-09T02:12:25.352Z,83.47
2018-10-09T02:13:05.911Z,83.94
2018-10-09T02:13:46.457Z,83.94
2018-10-09T02:14:27.020Z,83.56
2018-10-09T02:15:07.574Z,83.94
2018-10-09T02:15:48.138Z,83.75
2018-10-09T02:16:28.695Z,83.75
2018-10-09T02:17:09.248Z,83.85
2018-10-09T02:17:49.839Z,83.56
2018-10-09T02:18:30.400Z,83.85
2018-10-09T02:19:10.957Z,83.65
2018-10-09T02:19:51.507Z,83.65
2018-10-09T02:20:32.065Z,83.75
2018-10-09T02:21:12.622Z,83.75
2018-10-09T02:21:53.171Z,83.75
2018-10-09T02:22:33.723Z,83.75
2018-10-09T02:23:14.287Z,83.75
2018-10-09T02:23:54.867Z,83.37
2018-10-09T02:24:35.419Z,83.47
2018-10-09T02:25:15.977Z,83.56
2018-10-09T02:25:56.541Z,83.75
2018-10-09T02:26:37.096Z,83.85
2018-10-09T02:27:17.669Z,83.37
2018-10-09T02:27:58.232Z,83.75
2018-10-09T02:28:38.779Z,83.85
2018-10-09T02:29:19.325Z,83.75
2018-10-09T02:29:59.895Z,84.04
2018-10-09T02:30:40.464Z,83.75
2018-10-09T02:31:21.029Z,83.65
2018-10-09T02:32:01.612Z,83.47
2018-10-09T02:32:42.162Z,84.04
2018-10-09T02:33:22.726Z,83.65
2018-10-09T02:34:03.291Z,84.33
2018-10-09T02:34:43.852Z,84.04
2018-10-09T02:35:24.385Z,84.13
2018-10-09T02:36:04.946Z,84.23
2018-10-09T02:36:45.502Z,84.99
2018-10-09T02:37:26.068Z,84.7
2018-10-09T02:38:06.632Z,84.7
2018-10-09T02:38:47.192Z,84.61
2018-10-09T02:39:27.762Z,84.89
2018-10-09T02:40:08.317Z,84.61
2018-10-09T02:40:48.890Z,84.61
2018-10-09T02:41:29.446Z,84.61
2018-10-09T02:42:10.005Z,84.42
2018-10-09T02:42:50.625Z,84.61
2018-10-09T02:43:31.176Z,84.89
2018-10-09T02:44:11.738Z,84.7
2018-10-09T02:44:52.296Z,84.89
2018-10-09T02:45:32.844Z,84.42
2018-10-09T02:46:13.412Z,84.89
2018-10-09T02:46:53.966Z,84.33
2018-10-09T02:47:34.509Z,84.42
2018-10-09T02:48:15.073Z,84.04
2018-10-09T02:48:55.645Z,84.13
2018-10-09T02:49:36.197Z,84.04
2018-10-09T02:50:16.744Z,83.75
2018-10-09T02:50:57.306Z,83.65
2018-10-09T02:51:37.864Z,83.56
2018-10-09T02:52:18.425Z,83.65
2018-10-09T02:52:58.977Z,83.65
2018-10-09T02:53:39.537Z,83.56
2018-10-09T02:54:20.097Z,83.85
2018-10-09T02:55:00.657Z,83.85
2018-10-09T02:55:41.232Z,83.94
2018-10-09T02:56:21.774Z,83.94
2018-10-09T02:57:02.336Z,84.13
2018-10-09T02:57:42.890Z,84.33
2018-10-09T02:58:23.432Z,84.23
2018-10-09T02:59:04.013Z,84.61
2018-10-09T02:59:44.582Z,84.23
2018-10-09T03:00:25.153Z,84.8
2018-10-09T03:01:05.755Z,84.89
2018-10-09T03:01:46.329Z,84.89
2018-10-09T03:02:26.891Z,84.42
2018-10-09T03:03:07.456Z,84.61
2018-10-09T03:03:48.042Z,84.7
2018-10-09T03:04:28.614Z,84.61
2018-10-09T03:05:09.176Z,84.8
2018-10-09T03:05:49.734Z,84.61
2018-10-09T03:06:30.298Z,84.42
2018-10-09T03:07:10.859Z,84.7
2018-10-09T03:07:51.410Z,84.89
2018-10-09T03:08:32.025Z,84.89
2018-10-09T03:09:12.558Z,84.99
2018-10-09T03:09:53.115Z,84.99
2018-10-09T03:10:33.672Z,85.18
2018-10-09T03:11:14.241Z,84.99
2018-10-09T03:11:54.793Z,84.61
2018-10-09T03:12:35.350Z,84.42
2018-10-09T03:13:15.917Z,84.52
2018-10-09T03:13:56.483Z,84.47
2018-10-09T03:14:37.060Z,84.47
2018-10-09T03:15:17.595Z,84.47
2018-10-09T03:15:58.185Z,84.89
2018-10-09T03:16:38.741Z,84.8
2018-10-09T03:17:19.320Z,84.89
2018-10-09T03:17:59.915Z,84.89
2018-10-09T03:18:40.479Z,84.89
2018-10-09T03:19:21.067Z,85.08
2018-10-09T03:20:01.646Z,85.37
2018-10-09T03:20:42.286Z,85.14
2018-10-09T03:21:22.773Z,85.37
2018-10-09T03:22:03.325Z,85.08
2018-10-09T03:22:43.894Z,85.04
2018-10-09T03:23:24.510Z,85.33
2018-10-09T03:24:05.104Z,85.08
2018-10-09T03:24:45.708Z,85.94
2018-10-09T03:25:26.272Z,85.33
2018-10-09T03:26:06.834Z,85.47
2018-10-09T03:26:47.390Z,85.08
2018-10-09T03:27:27.933Z,85.9
2018-10-09T03:28:08.489Z,85.9
2018-10-09T03:28:49.088Z,85.71
2018-10-09T03:29:29.619Z,85.28
2018-10-09T03:30:10.191Z,85.33
2018-10-09T03:30:50.758Z,85.33
2018-10-09T03:31:31.318Z,85.75
2018-10-09T03:32:11.872Z,85.08
2018-10-09T03:32:52.432Z,85.28
2018-10-09T03:33:32.992Z,85.37
2018-10-09T03:34:13.569Z,85.94
2018-10-09T03:34:54.137Z,85.9
2018-10-09T03:35:34.704Z,86.13
2018-10-09T03:36:15.278Z,85.75
2018-10-09T03:36:55.829Z,85.99
2018-10-09T03:37:36.382Z,85.8
2018-10-09T03:38:16.934Z,85.52
2018-10-09T03:38:57.488Z,85.61
2018-10-09T03:39:38.061Z,85.8
2018-10-09T03:40:18.623Z,85.94
2018-10-09T03:40:59.178Z,85.71
2018-10-09T03:41:39.721Z,85.9
2018-10-09T03:42:20.262Z,85.99
2018-10-09T03:43:00.832Z,85.9
2018-10-09T03:43:41.415Z,85.99
2018-10-09T03:44:21.991Z,85.61
2018-10-09T03:45:02.563Z,86.09
2018-10-09T03:45:43.117Z,86.47
2018-10-09T03:46:23.660Z,86.18
2018-10-09T03:47:04.231Z,85.8
2018-10-09T03:47:44.796Z,85.9
2018-10-09T03:48:25.362Z,85.9
2018-10-09T03:49:05.923Z,85.71
2018-10-09T03:49:46.522Z,85.61
2018-10-09T03:50:27.106Z,86.09
2018-10-09T03:51:07.701Z,85.99
2018-10-09T03:51:48.257Z,85.9
2018-10-09T03:52:28.834Z,86.04
2018-10-09T03:53:09.416Z,85.85
2018-10-09T03:53:49.956Z,85.71
2018-10-09T03:54:30.514Z,85.71
2018-10-09T03:55:11.080Z,85.24
2018-10-09T03:55:51.660Z,85.52
2018-10-09T03:56:32.213Z,85.42
2018-10-09T03:57:12.760Z,85.33
2018-10-09T03:57:53.349Z,85.42
2018-10-09T03:58:33.931Z,85.42
2018-10-09T03:59:14.482Z,85.8
2018-10-09T03:59:55.065Z,85.99
2018-10-09T04:00:35.659Z,85.9
2018-10-09T04:01:16.211Z,86.04
2018-10-09T04:01:56.768Z,85.9
2018-10-09T04:02:37.329Z,85.8
2018-10-09T04:03:17.889Z,85.33
2018-10-09T04:03:58.438Z,85.71
2018-10-09T04:04:38.997Z,85.24
2018-10-09T04:05:19.566Z,84.95
2018-10-09T04:06:00.123Z,84.95
2018-10-09T04:06:40.675Z,85.04
2018-10-09T04:07:21.235Z,85.14
2018-10-09T04:08:01.808Z,85.14
2018-10-09T04:08:42.378Z,85.42
2018-10-09T04:09:22.979Z,85.52
2018-10-09T04:10:03.514Z,85.52
2018-10-09T04:10:44.075Z,85.52
2018-10-09T04:11:24.671Z,85.9
2018-10-09T04:12:05.241Z,85.24
2018-10-09T04:12:45.981Z,85.71
2018-10-09T04:13:26.541Z,85.52
2018-10-09T04:14:07.137Z,85.61
2018-10-09T04:14:47.730Z,85.33
2018-10-09T04:15:28.304Z,85.18
2018-10-09T04:16:08.863Z,85.52
2018-10-09T04:16:49.424Z,85.47
2018-10-09T04:17:30.005Z,85.42
2018-10-09T04:18:10.578Z,85.14
2018-10-09T04:18:51.150Z,84.85
2018-10-09T04:19:31.843Z,84.76
2018-10-09T04:20:12.282Z,84.85
2018-10-09T04:20:52.847Z,84.95
2018-10-09T04:21:33.405Z,84.95
2018-10-09T04:22:13.981Z,84.56
2018-10-09T04:22:54.554Z,84.89
2018-10-09T04:23:35.133Z,84.38
2018-10-09T04:24:15.696Z,84.85
2018-10-09T04:24:56.255Z,84.89
2018-10-09T04:25:36.810Z,85.24
2018-10-09T04:26:17.361Z,84.95
2018-10-09T04:26:57.921Z,85.24
2018-10-09T04:27:38.463Z,85.18
2018-10-09T04:28:19.028Z,85.42
2018-10-09T04:28:59.583Z,85.75
2018-10-09T04:29:40.146Z,85.52
2018-10-09T04:30:20.705Z,85.56
2018-10-09T04:31:01.290Z,85.52
2018-10-09T04:31:41.842Z,85.33
2018-10-09T04:32:22.400Z,85.61
2018-10-09T04:33:02.971Z,85.28
2018-10-09T04:33:43.519Z,85.33
2018-10-09T04:34:24.100Z,85.08
2018-10-09T04:35:04.658Z,85.08
2018-10-09T04:35:45.324Z,84.99
2018-10-09T04:36:25.767Z,85.08
2018-10-09T04:37:06.328Z,85.37
2018-10-09T04:37:46.945Z,85.47
2018-10-09T04:38:27.514Z,85.47
2018-10-09T04:39:08.181Z,85.14
2018-10-09T04:39:48.766Z,85.18
2018-10-09T04:40:29.314Z,85.18
2018-10-09T04:41:09.875Z,84.99
2018-10-09T04:41:50.432Z,85.37
2018-10-09T04:42:31.013Z,85.33
2018-10-09T04:43:11.776Z,85.28
2018-10-09T04:43:54.173Z,85.28
2018-10-09T04:44:34.668Z,85.71
2018-10-09T04:45:15.555Z,85.75
2018-10-09T04:46:04.040Z,85.28
2018-10-09T04:46:44.602Z,85.37
2018-10-09T04:47:25.800Z,85.47
2018-10-09T04:48:06.408Z,85.18
2018-10-09T04:48:46.963Z,85.75
2018-10-09T04:49:27.654Z,85.24
2018-10-09T04:50:08.616Z,85.56
2018-10-09T04:50:49.701Z,85.56
2018-10-09T04:51:30.281Z,85.75
2018-10-09T04:52:10.888Z,85.56
2018-10-09T04:52:51.448Z,85.56
2018-10-09T04:53:32.004Z,85.47
2018-10-09T04:54:12.591Z,85.66
2018-10-09T04:54:53.163Z,85.66
2018-10-09T04:55:33.934Z,85.56
2018-10-09T04:56:14.837Z,85.94
2018-10-09T04:56:55.705Z,85.24
2018-10-09T04:57:37.404Z,85.24
2018-10-09T04:58:17.981Z,85.24
2018-10-09T04:58:58.679Z,85.28
2018-10-09T04:59:39.221Z,85.37
2018-10-09T05:00:19.782Z,85.56
2018-10-09T05:01:00.333Z,85.47
2018-10-09T05:01:40.899Z,85.42
2018-10-09T05:02:21.467Z,85.04
2018-10-09T05:03:02.023Z,85.94
2018-10-09T05:03:42.574Z,85.9
2018-10-09T05:04:23.139Z,85.52
2018-10-09T05:05:03.706Z,85.8
2018-10-09T05:05:44.292Z,86.18
2018-10-09T05:06:24.850Z,86.28
2018-10-09T05:07:05.410Z,86.47
2018-10-09T05:07:45.967Z,86.47
2018-10-09T05:08:26.519Z,87.08
2018-10-09T05:09:07.233Z,86.99
2018-10-09T05:09:47.812Z,87.04
2018-10-09T05:10:28.374Z,86.28
2018-10-09T05:11:08.927Z,86.38
2018-10-09T05:11:49.493Z,86.57
2018-10-09T05:12:30.049Z,87.04
2018-10-09T05:13:10.597Z,86.94
2018-10-09T05:13:51.163Z,87.04
2018-10-09T05:14:31.717Z,87.23
2018-10-09T05:15:12.273Z,87.42
2018-10-09T05:15:52.827Z,87.52
2018-10-09T05:16:33.382Z,87.42
2018-10-09T05:17:13.940Z,88.28
2018-10-09T05:17:54.588Z,87.42
2018-10-09T05:18:35.051Z,88.18
2018-10-09T05:19:15.617Z,88.09
2018-10-09T05:19:56.170Z,87.71
2018-10-09T05:20:36.742Z,87.99
2018-10-09T05:21:17.300Z,88.37
2018-10-09T05:21:57.877Z,88.46
2018-10-09T05:22:38.449Z,88.56
2018-10-09T05:23:19.096Z,88.75
2018-10-09T05:23:59.568Z,88.37
2018-10-09T05:24:40.129Z,88.28
2018-10-09T05:25:20.696Z,88.46
2018-10-09T05:26:01.247Z,88.56
2018-10-09T05:26:41.824Z,88.75
2018-10-09T05:27:22.389Z,88.56
2018-10-09T05:28:02.932Z,89.14
2018-10-09T05:28:43.480Z,88.75
2018-10-09T05:29:24.062Z,88.94
2018-10-09T05:30:04.833Z,89.42
2018-10-09T05:30:45.538Z,89.42
2018-10-09T05:31:26.102Z,89.14
2018-10-09T05:32:06.601Z,89.04
2018-10-09T05:32:47.169Z,89.14
2018-10-09T05:33:27.750Z,89.14
2018-10-09T05:34:08.325Z,89.42
2018-10-09T05:34:48.874Z,89.42
2018-10-09T05:35:29.449Z,89.14
2018-10-09T05:36:10.063Z,88.75
2018-10-09T05:36:50.607Z,88.75
2018-10-09T05:37:31.208Z,89.04
2018-10-09T05:38:11.727Z,88.94
2018-10-09T05:38:52.291Z,88.94
2018-10-09T05:39:32.839Z,88.85
2018-10-09T05:40:13.443Z,89.04
2018-10-09T05:40:54.017Z,88.6
2018-10-09T05:41:34.594Z,88.7
2018-10-09T05:42:15.153Z,88.85
2018-10-09T05:42:55.727Z,88.75
2018-10-09T05:43:36.499Z,88.66
2018-10-09T05:44:59.757Z,88.46
2018-10-09T05:45:40.323Z,88.37
2018-10-09T05:46:21.576Z,88.56
2018-10-09T05:47:02.137Z,88.37
2018-10-09T05:47:42.809Z,88.94
2018-10-09T05:48:23.373Z,88.75
2018-10-09T05:49:03.927Z,88.75
2018-10-09T05:49:44.471Z,88.7
2018-10-09T05:50:25.056Z,88.51
2018-10-09T05:51:05.719Z,88.37
2018-10-09T05:51:47.211Z,88.75
2018-10-09T05:52:27.266Z,88.46
2018-10-09T05:53:07.915Z,88.28
2018-10-09T05:53:49.135Z,88.32
2018-10-09T05:54:29.690Z,88.46
2018-10-09T05:55:11.093Z,88.66
2018-10-09T05:55:51.690Z,88.85
2018-10-09T05:56:32.235Z,89.04
2018-10-09T05:57:12.830Z,88.89
2018-10-09T05:57:53.410Z,88.6
2018-10-09T05:58:33.974Z,88.66
2018-10-09T05:59:14.536Z,88.94
2018-10-09T05:59:55.149Z,89.37
2018-10-09T06:00:35.717Z,89.47
2018-10-09T06:01:16.323Z,89.56
2018-10-09T06:01:56.879Z,89.37
2018-10-09T06:02:37.450Z,88.99
2018-10-09T06:03:18.061Z,89.23
2018-10-09T06:03:58.636Z,89.51
2018-10-09T06:04:39.175Z,89.47
2018-10-09T06:05:19.731Z,89.47
2018-10-09T06:06:00.474Z,90.32
2018-10-09T06:06:40.932Z,89.65
2018-10-09T06:07:21.537Z,89.94
2018-10-09T06:08:02.118Z,90.42
2018-10-09T06:08:42.716Z,90.61
2018-10-09T06:09:23.267Z,90.8
2018-10-09T06:10:03.841Z,90.7
2018-10-09T06:10:44.442Z,90.7
2018-10-09T06:11:24.993Z,90.89
2018-10-09T06:12:05.534Z,90.61
2018-10-09T06:12:46.156Z,91.17
2018-10-09T06:13:26.709Z,90.8
2018-10-09T06:14:07.295Z,90.61
2018-10-09T06:14:47.915Z,91.46
2018-10-09T06:15:28.525Z,91.84
2018-10-09T06:16:09.047Z,91.56
2018-10-09T06:16:49.601Z,91.56
2018-10-09T06:17:30.156Z,92.22
2018-10-09T06:18:10.702Z,92.22
2018-10-09T06:18:51.433Z,92.51
2018-10-09T06:19:31.938Z,92.7
2018-10-09T06:20:12.493Z,93.18
2018-10-09T06:20:53.215Z,93.18
2018-10-09T06:21:33.912Z,92.7
2018-10-09T06:22:14.596Z,92.7
2018-10-09T06:22:55.460Z,92.32
2018-10-09T06:23:36.049Z,92.51
2018-10-09T06:24:16.619Z,92.32
2018-10-09T06:24:57.208Z,92.22
2018-10-09T06:25:37.761Z,92.6
2018-10-09T06:26:18.322Z,92.32
2018-10-09T06:26:58.887Z,92.51
2018-10-09T06:27:39.531Z,92.7
2018-10-09T06:28:20.125Z,93.46
2018-10-09T06:29:00.655Z,93.37
2018-10-09T06:29:41.230Z,93.37
2018-10-09T06:30:21.788Z,93.08
2018-10-09T06:31:02.365Z,93.37
2018-10-09T06:31:43.137Z,92.79
2018-10-09T06:32:23.744Z,93.74
2018-10-09T06:33:04.288Z,93.74
2018-10-09T06:33:44.928Z,93.65
2018-10-09T06:34:25.480Z,93.74
2018-10-09T06:35:06.045Z,93.84
2018-10-09T06:35:46.611Z,93.74
2018-10-09T06:36:27.171Z,93.74
2018-10-09T06:37:07.883Z,93.55
2018-10-09T06:37:48.412Z,93.65
2018-10-09T06:38:28.966Z,92.79
2018-10-09T06:39:09.542Z,92.79
2018-10-09T06:39:50.104Z,92.7
2018-10-09T06:40:30.781Z,92.89
2018-10-09T06:41:11.267Z,93.55
2018-10-09T06:41:51.827Z,93.65
2018-10-09T06:42:32.412Z,93.51
2018-10-09T06:43:13.066Z,93.41
2018-10-09T06:43:53.590Z,92.89
2018-10-09T06:44:34.131Z,93.13
2018-10-09T06:45:14.678Z,93.22
2018-10-09T06:45:55.230Z,93.13
2018-10-09T06:46:35.830Z,93.22
2018-10-09T06:47:16.382Z,93.22
2018-10-09T06:47:56.953Z,93.32
2018-10-09T06:48:37.521Z,93.32
2018-10-09T06:49:18.082Z,92.74
2018-10-09T06:49:58.636Z,92.55
2018-10-09T06:50:39.217Z,92.74
2018-10-09T06:51:19.774Z,92.65
2018-10-09T06:52:00.397Z,92.74
2018-10-09T06:52:40.974Z,93.13
2018-10-09T06:53:21.591Z,92.55
2018-10-09T06:54:02.749Z,92.55
2018-10-09T06:54:43.319Z,92.65
2018-10-09T06:55:23.848Z,92.36
2018-10-09T06:56:04.408Z,92.46
2018-10-09T06:56:44.962Z,92.55
2018-10-09T06:57:25.512Z,92.36
2018-10-09T06:58:06.191Z,92.55
2018-10-09T06:58:46.764Z,92.65
2018-10-09T06:59:27.383Z,92.36
2018-10-09T07:00:07.967Z,92.46
2018-10-09T07:00:48.502Z,92.74
2018-10-09T07:01:29.074Z,92.65
2018-10-09T07:02:09.647Z,92.74
2018-10-09T07:02:50.195Z,92.74
2018-10-09T07:03:30.881Z,92.55
2018-10-09T07:04:11.460Z,92.36
2018-10-09T07:04:52.208Z,92.27
2018-10-09T07:05:32.805Z,92.74
2018-10-09T07:06:13.433Z,92.36
2018-10-09T07:06:53.987Z,92.46
2018-10-09T07:07:34.575Z,92.74
2018-10-09T07:08:15.138Z,92.55
2018-10-09T07:08:55.723Z,92.74
2018-10-09T07:09:36.294Z,93.32
2018-10-09T07:10:16.853Z,93.32
2018-10-09T07:10:58.855Z,93.13
2018-10-09T07:11:39.474Z,93.46
2018-10-09T07:12:19.987Z,93.41
2018-10-09T07:13:00.655Z,93.37
2018-10-09T07:13:41.216Z,93.37
2018-10-09T07:14:21.803Z,93.27
2018-10-09T07:15:02.413Z,93.37
2018-10-09T07:15:42.979Z,92.98
2018-10-09T07:16:23.532Z,93.27
2018-10-09T07:17:04.122Z,93.46
2018-10-09T07:17:44.665Z,93.27
2018-10-09T07:18:25.217Z,93.27
2018-10-09T07:19:05.779Z,93.27
2018-10-09T07:19:46.343Z,92.98
2018-10-09T07:20:26.894Z,93.37
2018-10-09T07:21:07.470Z,93.37
2018-10-09T07:21:48.088Z,93.27
2018-10-09T07:22:28.614Z,93.27
2018-10-09T07:23:09.204Z,92.79
2018-10-09T07:23:49.803Z,93.37
2018-10-09T07:24:30.379Z,93.27
2018-10-09T07:25:10.972Z,93.37
2018-10-09T07:25:51.532Z,93.08
2018-10-09T07:26:32.081Z,93.37
2018-10-09T07:27:12.648Z,92.79
2018-10-09T07:27:53.234Z,92.46
2018-10-09T07:28:33.771Z,93.32
2018-10-09T07:29:14.332Z,93.32
2018-10-09T07:29:54.892Z,92.74
2018-10-09T07:30:35.759Z,92.17
2018-10-09T07:31:16.357Z,91.46
2018-10-09T07:31:56.912Z,90.59
2018-10-09T07:32:37.461Z,88.69
2018-10-09T07:33:18.027Z,88.02
2018-10-09T07:33:58.652Z,87.07
2018-10-09T07:34:39.218Z,86.4
2018-10-09T07:35:19.771Z,86.02
2018-10-09T07:36:00.334Z,86.11
2018-10-09T07:36:40.901Z,85.54
2018-10-09T07:37:21.496Z,85.45
2018-10-09T07:38:02.033Z,85.77
2018-10-09T07:38:42.620Z,85.16
2018-10-09T07:39:23.162Z,85.58
2018-10-09T07:40:03.721Z,85.25
2018-10-09T07:40:44.288Z,84.82
2018-10-09T07:41:24.851Z,84.97
2018-10-09T07:42:05.416Z,85.01
2018-10-09T07:42:45.997Z,84.97
2018-10-09T07:43:26.553Z,85.16
2018-10-09T07:44:07.300Z,85.16
2018-10-09T07:44:48.499Z,85.25
2018-10-09T07:45:28.987Z,86.16
2018-10-09T07:46:09.557Z,85.68
2018-10-09T07:46:50.128Z,85.49
2018-10-09T07:47:30.847Z,85.58
2018-10-09T07:48:11.471Z,85.77
2018-10-09T07:48:52.066Z,85.58
2018-10-09T07:49:32.641Z,85.49
2018-10-09T07:50:13.333Z,85.39
2018-10-09T07:50:53.935Z,85.05
2018-10-09T07:51:34.506Z,84.1
2018-10-09T07:52:15.129Z,83.91
2018-10-09T07:52:55.950Z,83.14
2018-10-09T07:53:36.466Z,82.48
2018-10-09T07:54:17.652Z,81.81
2018-10-09T07:54:58.334Z,81.09
2018-10-09T07:55:39.092Z,81.18
2018-10-09T07:56:19.754Z,80.99
2018-10-09T07:57:00.324Z,80.8
2018-10-09T07:57:40.917Z,80.51
2018-10-09T07:58:21.521Z,80.57
2018-10-09T07:59:02.190Z,80.8
2018-10-09T07:59:42.776Z,80.7
2018-10-09T08:00:23.400Z,80.57
2018-10-09T08:01:03.952Z,80.47
2018-10-09T08:01:44.827Z,80.76
2018-10-09T08:02:25.588Z,81.04
2018-10-09T08:03:07.108Z,80.95
2018-10-09T08:03:48.012Z,81.14
2018-10-09T08:04:28.825Z,81.24
2018-10-09T08:05:09.485Z,81.81
2018-10-09T08:05:50.267Z,81.52
2018-10-09T08:06:31.065Z,81.52
2018-10-09T08:07:11.748Z,81.71
2018-10-09T08:07:52.545Z,81.52
2018-10-09T08:08:33.173Z,81.52
2018-10-09T08:09:13.878Z,82.76
2018-10-09T08:09:54.858Z,83.72
2018-10-09T08:10:35.706Z,84
2018-10-09T08:11:16.319Z,83.53
2018-10-09T08:11:57.086Z,83.53
2018-10-09T08:12:37.903Z,83.28
2018-10-09T08:13:18.560Z,83.18
2018-10-09T08:13:59.462Z,83
2018-10-09T08:14:40.250Z,82.23
2018-10-09T08:15:21.738Z,81.56
2018-10-09T08:16:02.319Z,81.27
2018-10-09T08:16:42.889Z,80.61
2018-10-09T08:17:23.480Z,80.61
2018-10-09T08:18:04.078Z,80.17
2018-10-09T08:18:44.664Z,79.69
2018-10-09T08:19:25.244Z,79.5
2018-10-09T08:20:05.829Z,79.22
2018-10-09T08:20:46.433Z,79.5
2018-10-09T08:21:27.282Z,78.74
2018-10-09T08:22:07.981Z,78.16
2018-10-09T08:22:48.734Z,78.45
2018-10-09T08:23:29.338Z,77.92
2018-10-09T08:24:09.921Z,77.63
2018-10-09T08:24:50.505Z,77.34
2018-10-09T08:25:31.095Z,76.39
2018-10-09T08:26:11.730Z,76.29
2018-10-09T08:26:52.288Z,76.1
2018-10-09T08:27:32.870Z,76.2
2018-10-09T08:28:13.435Z,76
2018-10-09T08:28:54.014Z,75.91
2018-10-09T08:29:34.602Z,75.43
2018-10-09T08:30:15.213Z,75.05
2018-10-09T08:30:55.791Z,74.9
2018-10-09T08:31:36.380Z,74.7
2018-10-09T08:32:16.946Z,73.75
2018-10-09T08:32:57.628Z,73.75
2018-10-09T08:33:38.200Z,73.55
2018-10-09T08:34:18.829Z,73.17
2018-10-09T08:34:59.347Z,73.46
2018-10-09T08:35:39.948Z,73.27
2018-10-09T08:36:20.498Z,73.46
2018-10-09T08:37:01.096Z,73.17
2018-10-09T08:37:41.701Z,73.08
2018-10-09T08:38:22.248Z,72.88
2018-10-09T08:39:02.850Z,72.79
2018-10-09T08:39:43.432Z,72.69
2018-10-09T08:40:24.152Z,72.92
2018-10-09T08:41:04.594Z,72.83
2018-10-09T08:41:45.159Z,72.92
2018-10-09T08:42:25.741Z,72.92
2018-10-09T08:43:06.291Z,72.83
2018-10-09T08:43:46.864Z,72.54
2018-10-09T08:44:27.561Z,72.83
2018-10-09T08:45:08.143Z,72.92
2018-10-09T08:45:48.703Z,72.73